Time;durP1;ratioP1;P1;durP2;ratioP2;P2;SDS_P1;SDS_P2;PMS_P1;PMS_P2;Temp;Humidity;BMP_temperature;BMP_pressure;BME280_temperature;BME280_humidity;BME280_pressure;Samples;Min_cycle;Max_cycle;Signal;HPM_P1;HPM_P2
2022/08/31 00:04:32;;;;;;;3.75;1.30;;;;;;;;;;5007375;28;20049;-80
2022/08/31 00:06:57;;;;;;;1.92;1.20;;;;;;;;;;5008987;28;20035;-80
2022/08/31 00:09:23;;;;;;;4.20;1.75;;;;;;;;;;5008987;28;20417;-80
2022/08/31 00:11:48;;;;;;;3.65;1.17;;;;;;;;;;5008833;28;20058;-80
2022/08/31 00:14:14;;;;;;;3.00;1.17;;;;;;;;;;5008575;28;20038;-79
2022/08/31 00:16:40;;;;;;;2.03;0.90;;;;;;;;;;5008933;28;20042;-80
2022/08/31 00:19:06;;;;;;;2.70;1.10;;;;;;;;;;5025504;28;20034;-79
2022/08/31 00:21:31;;;;;;;4.28;1.33;;;;;;;;;;5025589;28;20049;-80
2022/08/31 00:23:57;;;;;;;1.98;1.02;;;;;;;;;;5008632;28;20065;-80
2022/08/31 00:26:22;;;;;;;4.20;1.40;;;;;;;;;;5008686;28;20045;-80
2022/08/31 00:28:48;;;;;;;3.58;1.42;;;;;;;;;;5008198;28;20120;-80
2022/08/31 00:31:14;;;;;;;1.60;1.02;;;;;;;;;;5008477;28;20030;-80
2022/08/31 00:33:39;;;;;;;2.80;1.30;;;;;;;;;;5024545;28;20061;-80
2022/08/31 00:36:06;;;;;;;2.30;1.10;;;;;;;;;;5008187;28;20053;-80
2022/08/31 00:38:32;;;;;;;2.83;1.15;;;;;;;;;;5025151;28;20062;-80
2022/08/31 00:40:57;;;;;;;3.05;1.25;;;;;;;;;;5024918;28;20062;-80
2022/08/31 00:43:59;;;;;;;2.53;1.05;;;;;;;;;;4991786;28;20061;-80
2022/08/31 00:46:34;;;;;;;2.88;1.25;;;;;;;;;;4986289;28;20049;-80
2022/08/31 00:49:05;;;;;;;1.90;0.90;;;;;;;;;;5012424;28;20049;-80
2022/08/31 00:51:32;;;;;;;1.80;0.98;;;;;;;;;;4995561;28;20080;-80
2022/08/31 00:53:58;;;;;;;3.38;1.25;;;;;;;;;;5011515;28;20042;-79
2022/08/31 00:56:23;;;;;;;1.88;1.25;;;;;;;;;;5011238;28;20136;-80
2022/08/31 00:58:50;;;;;;;2.55;1.10;;;;;;;;;;5011063;28;20084;-79
2022/08/31 01:01:18;;;;;;;2.92;0.80;;;;;;;;;;5011368;28;20409;-79
2022/08/31 01:03:43;;;;;;;4.00;1.48;;;;;;;;;;4995682;28;20021;-80
2022/08/31 01:06:09;;;;;;;3.17;1.55;;;;;;;;;;4995119;28;20030;-80
2022/08/31 01:08:34;;;;;;;2.63;1.10;;;;;;;;;;5010854;28;20041;-80
2022/08/31 01:11:00;;;;;;;3.08;1.30;;;;;;;;;;5010937;28;20045;-80
2022/08/31 01:13:25;;;;;;;2.40;1.08;;;;;;;;;;5011166;28;20034;-79
2022/08/31 01:15:57;;;;;;;2.88;1.05;;;;;;;;;;4994995;28;20145;-79
2022/08/31 01:18:23;;;;;;;2.95;1.10;;;;;;;;;;4998833;28;20048;-80
2022/08/31 01:20:51;;;;;;;2.53;1.23;;;;;;;;;;4991342;28;20133;-80
2022/08/31 01:23:22;;;;;;;2.75;1.30;;;;;;;;;;5024062;28;20034;-80
2022/08/31 01:25:48;;;;;;;2.08;1.30;;;;;;;;;;5007951;28;20040;-79
2022/08/31 01:28:13;;;;;;;3.70;1.08;;;;;;;;;;4975489;28;20121;-80
2022/08/31 01:30:40;;;;;;;2.30;1.10;;;;;;;;;;4991659;28;20038;-80
2022/08/31 01:33:06;;;;;;;2.80;1.40;;;;;;;;;;4991723;28;20046;-80
2022/08/31 01:35:31;;;;;;;2.35;1.25;;;;;;;;;;5007466;28;20034;-80
2022/08/31 01:37:56;;;;;;;2.55;1.48;;;;;;;;;;4991270;28;20034;-80
2022/08/31 01:40:32;;;;;;;3.45;1.20;;;;;;;;;;5007350;28;20042;-80
2022/08/31 01:42:57;;;;;;;3.67;1.30;;;;;;;;;;4975124;28;20053;-80
2022/08/31 01:45:23;;;;;;;4.85;2.50;;;;;;;;;;4961276;28;20046;-80
2022/08/31 01:47:48;;;;;;;1.95;1.13;;;;;;;;;;5011126;28;20497;-80
2022/08/31 01:50:14;;;;;;;3.45;1.05;;;;;;;;;;4994177;28;20038;-80
2022/08/31 01:52:39;;;;;;;3.60;1.40;;;;;;;;;;4994383;28;20041;-80
2022/08/31 01:55:06;;;;;;;2.88;1.33;;;;;;;;;;4993712;28;20053;-80
2022/08/31 01:57:31;;;;;;;3.25;1.35;;;;;;;;;;4978475;28;20126;-80
2022/08/31 01:59:59;;;;;;;2.03;1.00;;;;;;;;;;4994275;28;20561;-80
2022/08/31 02:02:24;;;;;;;2.78;1.55;;;;;;;;;;4977651;28;20037;-80
2022/08/31 02:04:50;;;;;;;2.03;0.95;;;;;;;;;;4978305;28;20574;-81
2022/08/31 02:07:15;;;;;;;2.55;1.30;;;;;;;;;;4961932;28;20034;-80
2022/08/31 02:09:41;;;;;;;2.35;1.20;;;;;;;;;;4993067;28;20046;-80
2022/08/31 02:12:06;;;;;;;2.63;1.42;;;;;;;;;;5009718;28;20398;-80
2022/08/31 02:14:32;;;;;;;3.10;1.35;;;;;;;;;;4977602;28;20440;-81
2022/08/31 02:16:57;;;;;;;2.92;1.30;;;;;;;;;;4994094;28;20497;-80
2022/08/31 02:19:22;;;;;;;2.65;1.35;;;;;;;;;;5010213;28;20389;-81
2022/08/31 02:21:48;;;;;;;2.97;1.35;;;;;;;;;;5010841;28;20397;-80
2022/08/31 02:24:13;;;;;;;2.83;1.08;;;;;;;;;;5009664;28;20097;-80
2022/08/31 02:26:39;;;;;;;2.25;0.85;;;;;;;;;;5027026;28;20100;-80
2022/08/31 02:29:06;;;;;;;1.70;1.20;;;;;;;;;;5026617;28;20452;-81
2022/08/31 02:31:31;;;;;;;2.67;1.10;;;;;;;;;;5026401;28;20695;-80
2022/08/31 02:33:57;;;;;;;2.28;1.30;;;;;;;;;;5009098;28;20022;-80
2022/08/31 02:36:22;;;;;;;2.13;1.35;;;;;;;;;;4990599;28;20034;-81
2022/08/31 02:38:48;;;;;;;2.55;1.55;;;;;;;;;;4974292;28;20034;-81
2022/08/31 02:41:14;;;;;;;3.78;1.27;;;;;;;;;;4993351;28;20038;-81
2022/08/31 02:43:40;;;;;;;2.17;1.13;;;;;;;;;;5006935;28;20034;-81
2022/08/31 02:46:05;;;;;;;3.17;1.50;;;;;;;;;;4998702;28;20037;-80
2022/08/31 02:48:31;;;;;;;2.80;1.30;;;;;;;;;;4993993;28;20042;-80
2022/08/31 02:51:02;;;;;;;3.25;1.40;;;;;;;;;;4993737;28;20049;-80
2022/08/31 02:53:27;;;;;;;2.85;1.65;;;;;;;;;;4961459;28;20030;-80
2022/08/31 02:55:53;;;;;;;2.92;1.20;;;;;;;;;;4977351;28;20048;-81
2022/08/31 02:58:18;;;;;;;2.40;1.13;;;;;;;;;;4977194;28;20036;-80
2022/08/31 03:00:45;;;;;;;2.25;1.33;;;;;;;;;;4993672;28;20060;-80
2022/08/31 03:03:10;;;;;;;2.50;1.20;;;;;;;;;;4961595;28;20104;-81
2022/08/31 03:05:36;;;;;;;2.60;1.55;;;;;;;;;;4993880;28;20108;-81
2022/08/31 03:08:02;;;;;;;2.33;1.13;;;;;;;;;;5009597;28;20045;-81
2022/08/31 03:10:27;;;;;;;3.28;1.60;;;;;;;;;;4977411;28;20041;-81
2022/08/31 03:12:53;;;;;;;2.55;1.40;;;;;;;;;;4993387;28;20050;-81
2022/08/31 03:15:19;;;;;;;2.25;1.27;;;;;;;;;;4977177;28;20041;-81
2022/08/31 03:17:45;;;;;;;2.13;1.00;;;;;;;;;;4961672;28;20404;-80
2022/08/31 03:20:10;;;;;;;2.08;1.17;;;;;;;;;;5010255;28;20038;-81
2022/08/31 03:22:36;;;;;;;2.88;1.50;;;;;;;;;;5012006;28;20029;-81
2022/08/31 03:25:01;;;;;;;1.80;1.20;;;;;;;;;;5013514;28;20451;-81
2022/08/31 03:27:30;;;;;;;2.35;1.55;;;;;;;;;;5013041;28;20030;-81
2022/08/31 03:29:55;;;;;;;2.58;1.58;;;;;;;;;;5012407;28;20045;-81
2022/08/31 03:32:21;;;;;;;2.75;1.55;;;;;;;;;;5029542;28;20141;-81
2022/08/31 03:34:46;;;;;;;2.60;1.50;;;;;;;;;;5013041;28;20452;-80
2022/08/31 03:37:12;;;;;;;2.65;1.50;;;;;;;;;;4996646;28;20034;-81
2022/08/31 03:39:38;;;;;;;2.33;1.27;;;;;;;;;;4996928;28;20038;-81
2022/08/31 03:42:05;;;;;;;2.10;1.30;;;;;;;;;;4982977;28;20437;-81
2022/08/31 03:44:31;;;;;;;2.50;1.48;;;;;;;;;;5009249;28;20867;-81
2022/08/31 03:46:57;;;;;;;2.05;1.33;;;;;;;;;;4962291;28;20025;-81
2022/08/31 03:49:23;;;;;;;3.33;1.50;;;;;;;;;;4979795;28;20073;-80
2022/08/31 03:51:48;;;;;;;2.47;1.40;;;;;;;;;;4980040;28;20045;-81
2022/08/31 03:54:14;;;;;;;3.60;1.45;;;;;;;;;;4979819;28;20042;-81
2022/08/31 03:56:39;;;;;;;3.13;1.88;;;;;;;;;;4995415;28;20037;-80
2022/08/31 03:59:06;;;;;;;2.90;1.60;;;;;;;;;;5012394;28;20073;-81
2022/08/31 04:01:34;;;;;;;2.25;1.40;;;;;;;;;;4963994;28;20028;-81
2022/08/31 04:03:59;;;;;;;2.78;1.10;;;;;;;;;;4963919;28;20132;-81
2022/08/31 04:06:24;;;;;;;3.88;1.83;;;;;;;;;;4995785;28;20136;-81
2022/08/31 04:08:50;;;;;;;3.45;1.70;;;;;;;;;;4995909;28;20072;-81
2022/08/31 04:11:16;;;;;;;3.38;1.52;;;;;;;;;;4995771;28;20064;-81
2022/08/31 04:13:42;;;;;;;2.45;1.52;;;;;;;;;;4979943;28;20072;-81
2022/08/31 04:16:08;;;;;;;2.25;1.27;;;;;;;;;;4964086;28;20034;-81
2022/08/31 04:18:35;;;;;;;1.98;1.40;;;;;;;;;;4976698;28;20080;-81
2022/08/31 04:21:01;;;;;;;3.17;1.40;;;;;;;;;;5025598;28;20042;-81
2022/08/31 04:23:28;;;;;;;3.33;1.60;;;;;;;;;;4976222;28;20037;-81
2022/08/31 04:25:54;;;;;;;3.38;1.90;;;;;;;;;;5008758;28;20041;-81
2022/08/31 04:28:20;;;;;;;2.75;1.50;;;;;;;;;;5008890;28;20042;-80
2022/08/31 04:30:47;;;;;;;3.47;1.70;;;;;;;;;;4992471;28;20038;-81
2022/08/31 04:33:12;;;;;;;2.90;1.42;;;;;;;;;;5023513;28;20045;-81
2022/08/31 04:35:39;;;;;;;2.40;1.50;;;;;;;;;;4992224;28;20038;-81
2022/08/31 04:38:04;;;;;;;2.78;1.70;;;;;;;;;;4992279;28;20034;-81
2022/08/31 04:40:30;;;;;;;2.60;1.48;;;;;;;;;;5008930;28;20523;-81
2022/08/31 04:42:55;;;;;;;2.67;1.77;;;;;;;;;;5027726;28;20435;-81
2022/08/31 04:45:21;;;;;;;3.92;1.85;;;;;;;;;;4979198;28;20459;-81
2022/08/31 04:47:46;;;;;;;2.55;1.60;;;;;;;;;;4995367;28;20037;-81
2022/08/31 04:50:12;;;;;;;3.05;1.80;;;;;;;;;;4979207;28;20041;-81
2022/08/31 04:52:37;;;;;;;3.33;1.40;;;;;;;;;;4962766;28;20038;-81
2022/08/31 04:55:03;;;;;;;2.53;1.63;;;;;;;;;;4979249;28;20026;-81
2022/08/31 04:57:30;;;;;;;2.10;1.60;;;;;;;;;;4962725;28;20404;-81
2022/08/31 04:59:56;;;;;;;2.40;1.50;;;;;;;;;;4979838;28;20128;-80
2022/08/31 05:02:21;;;;;;;3.03;1.75;;;;;;;;;;4994520;28;20440;-80
2022/08/31 05:04:46;;;;;;;4.05;1.80;;;;;;;;;;4961579;28;20435;-79
2022/08/31 05:07:12;;;;;;;5.18;2.22;;;;;;;;;;4992441;28;20133;-79
2022/08/31 05:09:37;;;;;;;4.60;1.98;;;;;;;;;;4960460;28;20420;-80
2022/08/31 05:12:03;;;;;;;4.72;1.77;;;;;;;;;;4961833;28;20036;-79
2022/08/31 05:14:28;;;;;;;3.63;2.28;;;;;;;;;;4994758;28;20420;-79
2022/08/31 05:16:54;;;;;;;2.85;1.70;;;;;;;;;;4994534;28;20040;-80
2022/08/31 05:19:20;;;;;;;4.78;2.05;;;;;;;;;;5011442;28;20042;-83
2022/08/31 05:21:46;;;;;;;5.65;2.15;;;;;;;;;;4978777;28;20049;-83
2022/08/31 05:24:17;;;;;;;3.70;1.70;;;;;;;;;;4977901;28;20436;-85
2022/08/31 05:26:47;;;;;;;5.68;2.17;;;;;;;;;;4979060;28;20029;-82
2022/08/31 05:29:13;;;;;;;4.40;2.10;;;;;;;;;;4963058;28;20034;-84
2022/08/31 05:31:38;;;;;;;19.73;3.13;;;;;;;;;;4978205;28;20093;-82
2022/08/31 05:34:04;;;;;;;22.73;4.20;;;;;;;;;;4979046;28;20448;-82
2022/08/31 05:36:30;;;;;;;21.35;4.43;;;;;;;;;;4978904;28;20053;-83
2022/08/31 05:38:55;;;;;;;10.98;3.08;;;;;;;;;;4995327;28;20140;-83
2022/08/31 05:41:21;;;;;;;14.55;3.22;;;;;;;;;;4998731;28;20046;-82
2022/08/31 05:43:46;;;;;;;10.43;2.83;;;;;;;;;;5010357;28;20052;-85
2022/08/31 05:46:13;;;;;;;7.15;3.25;;;;;;;;;;5010237;28;20185;-83
2022/08/31 05:48:38;;;;;;;11.10;3.45;;;;;;;;;;4958049;28;20133;-82
2022/08/31 05:51:05;;;;;;;11.30;3.15;;;;;;;;;;4989497;28;20031;-82
2022/08/31 05:53:31;;;;;;;10.70;3.78;;;;;;;;;;4957690;28;20091;-82
2022/08/31 05:55:59;;;;;;;8.55;2.97;;;;;;;;;;5006836;28;20125;-82
2022/08/31 05:58:26;;;;;;;6.93;3.30;;;;;;;;;;4975105;28;20026;-84
2022/08/31 06:00:51;;;;;;;7.43;3.47;;;;;;;;;;5007749;28;20053;-81
2022/08/31 06:03:17;;;;;;;6.28;2.90;;;;;;;;;;4958375;28;20099;-81
2022/08/31 06:05:42;;;;;;;7.05;3.10;;;;;;;;;;4991254;28;20497;-82
2022/08/31 06:08:10;;;;;;;7.72;3.58;;;;;;;;;;4993365;28;20415;-83
2022/08/31 06:10:40;;;;;;;8.05;3.00;;;;;;;;;;4976629;28;20038;-83
2022/08/31 06:13:08;;;;;;;12.57;4.17;;;;;;;;;;5031355;23;20518;-84
2022/08/31 06:15:33;;;;;;;12.38;3.95;;;;;;;;;;4998512;28;20382;-86
2022/08/31 06:17:58;;;;;;;8.50;3.53;;;;;;;;;;4999283;28;20037;-86
2022/08/31 06:20:24;;;;;;;8.30;3.40;;;;;;;;;;4999884;28;20040;-86
2022/08/31 06:22:51;;;;;;;13.10;4.05;;;;;;;;;;5011291;28;20037;-86
2022/08/31 06:25:18;;;;;;;8.50;3.67;;;;;;;;;;4981732;28;20037;-86
2022/08/31 06:27:48;;;;;;;10.05;3.05;;;;;;;;;;4981337;28;20038;-86
2022/08/31 06:30:17;;;;;;;7.97;3.80;;;;;;;;;;4996550;28;20107;-87
2022/08/31 06:32:44;;;;;;;6.38;3.30;;;;;;;;;;5012771;28;20029;-86
2022/08/31 06:35:09;;;;;;;7.00;3.35;;;;;;;;;;4980519;28;20132;-86
2022/08/31 06:37:35;;;;;;;5.53;2.83;;;;;;;;;;4996315;28;20045;-86
2022/08/31 06:40:00;;;;;;;6.63;2.72;;;;;;;;;;4996336;28;20053;-86
2022/08/31 06:42:25;;;;;;;5.00;2.55;;;;;;;;;;5013638;28;20036;-86
2022/08/31 06:44:51;;;;;;;5.97;2.65;;;;;;;;;;5012302;28;20064;-86
2022/08/31 06:47:18;;;;;;;5.65;2.85;;;;;;;;;;4977781;28;20551;-86
2022/08/31 06:49:44;;;;;;;5.03;2.45;;;;;;;;;;5010086;28;20034;-86
2022/08/31 06:52:09;;;;;;;5.10;2.88;;;;;;;;;;4994263;28;20108;-85
2022/08/31 06:54:36;;;;;;;4.32;2.30;;;;;;;;;;5010095;28;20036;-86
2022/08/31 06:57:01;;;;;;;4.15;2.53;;;;;;;;;;5010896;28;20124;-86
2022/08/31 06:59:28;;;;;;;5.60;3.10;;;;;;;;;;4966185;28;20037;-87
2022/08/31 07:01:54;;;;;;;6.05;3.13;;;;;;;;;;4966030;28;20030;-87
2022/08/31 07:04:20;;;;;;;10.02;3.33;;;;;;;;;;4982112;28;20042;-87
2022/08/31 07:06:45;;;;;;;5.40;3.22;;;;;;;;;;4966282;28;20065;-87
2022/08/31 07:09:14;;;;;;;7.65;3.67;;;;;;;;;;4982162;28;20049;-87
2022/08/31 07:11:58;;;;;;;6.40;2.85;;;;;;;;;;4966188;28;20034;-87
2022/08/31 07:14:25;;;;;;;8.25;3.42;;;;;;;;;;4981776;28;20044;-87
2022/08/31 07:16:53;;;;;;;7.53;2.83;;;;;;;;;;4965974;28;20034;-86
2022/08/31 07:19:20;;;;;;;8.20;4.05;;;;;;;;;;4981995;28;20033;-86
2022/08/31 07:21:53;;;;;;;6.07;3.55;;;;;;;;;;4965681;28;20040;-85
2022/08/31 07:24:24;;;;;;;8.95;3.55;;;;;;;;;;4981645;28;20026;-87
2022/08/31 07:26:55;;;;;;;7.03;3.25;;;;;;;;;;4965448;28;20025;-86
2022/08/31 07:29:21;;;;;;;7.53;3.35;;;;;;;;;;4965879;28;20129;-85
2022/08/31 07:31:47;;;;;;;5.75;3.50;;;;;;;;;;4965352;28;20176;-86
2022/08/31 07:34:19;;;;;;;5.88;3.72;;;;;;;;;;4965405;28;20034;-86
2022/08/31 07:42:16;;;;;;;7.25;3.90;;;;;;;;;;5014489;28;20512;-86
2022/08/31 07:44:46;;;;;;;7.88;3.47;;;;;;;;;;4983759;28;20034;-86
2022/08/31 07:47:13;;;;;;;5.13;2.95;;;;;;;;;;5000842;28;20487;-86
2022/08/31 07:49:43;;;;;;;7.90;3.42;;;;;;;;;;5000629;28;20037;-86
2022/08/31 07:52:10;;;;;;;7.18;3.47;;;;;;;;;;5002272;28;20033;-87
2022/08/31 07:54:35;;;;;;;8.80;3.83;;;;;;;;;;5000426;28;20060;-85
2022/08/31 07:57:03;;;;;;;7.80;3.42;;;;;;;;;;5016226;28;20500;-85
2022/08/31 07:59:32;;;;;;;9.45;3.88;;;;;;;;;;5016429;28;20492;-84
2022/08/31 08:02:02;;;;;;;10.15;4.03;;;;;;;;;;4999586;28;20056;-85
2022/08/31 08:04:28;;;;;;;8.48;4.18;;;;;;;;;;5001673;28;20041;-87
2022/08/31 08:06:55;;;;;;;7.20;4.45;;;;;;;;;;5000310;28;20061;-85
2022/08/31 08:09:24;;;;;;;8.88;3.78;;;;;;;;;;4984389;28;20044;-86
2022/08/31 08:11:54;;;;;;;8.23;3.63;;;;;;;;;;5015806;28;20034;-86
2022/08/31 08:14:20;;;;;;;8.85;3.67;;;;;;;;;;4984633;28;20041;-86
2022/08/31 08:16:47;;;;;;;8.20;3.72;;;;;;;;;;5000021;28;20033;-86
2022/08/31 08:19:13;;;;;;;9.23;3.92;;;;;;;;;;4999495;28;20042;-86
2022/08/31 08:21:42;;;;;;;14.82;6.03;;;;;;;;;;5000032;28;20037;-86
2022/08/31 08:24:09;;;;;;;16.02;6.57;;;;;;;;;;4995767;28;20401;-85
2022/08/31 08:26:35;;;;;;;17.83;7.25;;;;;;;;;;4995918;28;20393;-84
2022/08/31 08:29:03;;;;;;;21.75;7.25;;;;;;;;;;4996787;28;20046;-86
2022/08/31 08:31:28;;;;;;;18.48;7.93;;;;;;;;;;4997292;28;20116;-85
2022/08/31 08:33:55;;;;;;;13.82;5.88;;;;;;;;;;4997123;28;20037;-88
2022/08/31 08:36:20;;;;;;;12.75;6.07;;;;;;;;;;4996820;28;20817;-87
2022/08/31 08:38:49;;;;;;;10.75;5.18;;;;;;;;;;4996529;28;20052;-86
2022/08/31 08:41:20;;;;;;;12.77;4.72;;;;;;;;;;5006411;28;20037;-86
2022/08/31 08:43:48;;;;;;;7.10;4.65;;;;;;;;;;5019676;28;20041;-87
2022/08/31 08:46:14;;;;;;;6.32;4.03;;;;;;;;;;5004214;28;20018;-86
2022/08/31 08:48:41;;;;;;;6.40;3.25;;;;;;;;;;5015787;28;20092;-88
2022/08/31 08:51:11;;;;;;;7.18;4.38;;;;;;;;;;4999861;28;20038;-87
2022/08/31 08:53:40;;;;;;;7.65;4.53;;;;;;;;;;4999667;28;20412;-86
2022/08/31 08:56:10;;;;;;;8.82;5.70;;;;;;;;;;4999242;28;20065;-87
2022/08/31 08:58:41;;;;;;;13.35;5.75;;;;;;;;;;5015911;28;20084;-87
2022/08/31 09:01:10;;;;;;;9.30;5.13;;;;;;;;;;5015897;28;20037;-85
2022/08/31 09:04:09;;;;;;;6.70;4.70;;;;;;;;;;4999443;28;20128;-86
2022/08/31 09:06:40;;;;;;;6.28;4.22;;;;;;;;;;5015063;28;20030;-84
2022/08/31 09:09:17;;;;;;;8.77;4.88;;;;;;;;;;4997995;28;20045;-84
2022/08/31 09:11:53;;;;;;;6.65;4.25;;;;;;;;;;5014532;28;20072;-83
2022/08/31 09:14:35;;;;;;;7.70;4.18;;;;;;;;;;5014442;28;20048;-85
2022/08/31 09:17:23;;;;;;;7.38;4.00;;;;;;;;;;5008917;28;20034;-87
2022/08/31 09:19:58;;;;;;;11.27;4.57;;;;;;;;;;5027398;28;20461;-84
2022/08/31 09:22:25;;;;;;;12.05;5.20;;;;;;;;;;4996029;28;20083;-85
2022/08/31 09:24:50;;;;;;;14.43;5.05;;;;;;;;;;4994597;28;20073;-83
2022/08/31 09:27:16;;;;;;;9.07;4.45;;;;;;;;;;5011614;28;20122;-84
2022/08/31 09:29:43;;;;;;;10.45;6.35;;;;;;;;;;5006188;28;20064;-85
2022/08/31 09:32:09;;;;;;;8.10;4.03;;;;;;;;;;5012932;28;20029;-85
2022/08/31 09:34:37;;;;;;;7.75;4.43;;;;;;;;;;5013352;28;20048;-85
2022/08/31 09:37:15;;;;;;;9.88;4.03;;;;;;;;;;4997506;28;20064;-83
2022/08/31 09:39:46;;;;;;;9.07;4.70;;;;;;;;;;5013137;28;20042;-83
2022/08/31 09:42:27;;;;;;;9.43;4.47;;;;;;;;;;4983215;28;20033;-83
2022/08/31 09:44:54;;;;;;;9.82;3.92;;;;;;;;;;5027502;28;20038;-83
2022/08/31 09:47:47;;;;;;;8.25;3.63;;;;;;;;;;4980394;28;20057;-85
2022/08/31 09:50:33;;;;;;;5.10;3.70;;;;;;;;;;4982889;28;20030;-83
2022/08/31 09:56:14;;;;;;;8.15;3.40;;;;;;;;;;5030149;28;20037;-83
2022/08/31 09:59:07;;;;;;;7.63;4.32;;;;;;;;;;5015351;28;20040;-84
2022/08/31 10:01:43;;;;;;;7.03;3.55;;;;;;;;;;5011957;28;20128;-85
2022/08/31 10:04:15;;;;;;;7.93;3.78;;;;;;;;;;5029699;28;20041;-83
2022/08/31 10:06:54;;;;;;;9.20;4.40;;;;;;;;;;5030538;28;20124;-85
2022/08/31 10:09:28;;;;;;;5.05;3.72;;;;;;;;;;5014227;28;20040;-83
2022/08/31 10:11:56;;;;;;;9.10;3.75;;;;;;;;;;5015063;28;20057;-82
2022/08/31 10:14:23;;;;;;;6.38;3.53;;;;;;;;;;4997085;28;20041;-83
2022/08/31 10:16:52;;;;;;;12.25;4.32;;;;;;;;;;5012227;28;20116;-84
2022/08/31 10:19:33;;;;;;;7.47;4.15;;;;;;;;;;4997380;28;20033;-82
2022/08/31 10:22:09;;;;;;;9.57;4.38;;;;;;;;;;4999143;28;20120;-83
2022/08/31 10:25:10;;;;;;;9.25;4.20;;;;;;;;;;4996895;28;20033;-82
2022/08/31 10:27:45;;;;;;;6.97;3.70;;;;;;;;;;5013548;28;20049;-82
2022/08/31 10:30:28;;;;;;;9.63;5.10;;;;;;;;;;4996675;28;20452;-82
2022/08/31 10:33:03;;;;;;;7.65;5.60;;;;;;;;;;5015512;28;20037;-82
2022/08/31 10:35:42;;;;;;;9.13;4.30;;;;;;;;;;5032011;28;20491;-81
2022/08/31 10:38:22;;;;;;;9.35;5.30;;;;;;;;;;5000175;28;20037;-84
2022/08/31 10:41:06;;;;;;;7.88;4.20;;;;;;;;;;5018830;28;20126;-85
2022/08/31 10:43:38;;;;;;;8.02;4.50;;;;;;;;;;5029380;28;20041;-83
2022/08/31 10:46:04;;;;;;;8.95;5.90;;;;;;;;;;5015611;28;20026;-83
2022/08/31 10:48:30;;;;;;;7.55;4.63;;;;;;;;;;5032626;28;20408;-83
2022/08/31 10:51:04;;;;;;;6.93;4.45;;;;;;;;;;5031651;28;20045;-82
2022/08/31 10:54:05;;;;;;;7.03;4.03;;;;;;;;;;5016124;28;20029;-82
2022/08/31 10:56:49;;;;;;;7.93;4.45;;;;;;;;;;5015846;28;20123;-82
2022/08/31 10:59:33;;;;;;;6.72;4.68;;;;;;;;;;5016226;28;20033;-82
2022/08/31 11:02:27;;;;;;;7.75;4.22;;;;;;;;;;5015548;28;20029;-83
2022/08/31 11:05:18;;;;;;;6.65;4.65;;;;;;;;;;5032165;28;20064;-82
2022/08/31 11:07:52;;;;;;;7.32;4.55;;;;;;;;;;5014684;28;20026;-83
2022/08/31 11:10:41;;;;;;;10.32;4.50;;;;;;;;;;5015174;28;20148;-83
2022/08/31 11:13:15;;;;;;;8.70;4.28;;;;;;;;;;4993357;28;1110964;-84
2022/08/31 11:16:05;;;;;;;10.52;4.22;;;;;;;;;;5033158;28;20107;-83
2022/08/31 11:18:54;;;;;;;6.90;4.32;;;;;;;;;;5016601;28;20041;-84
2022/08/31 11:21:46;;;;;;;7.22;3.95;;;;;;;;;;5016742;28;20041;-83
2022/08/31 11:24:36;;;;;;;6.47;3.70;;;;;;;;;;5019441;28;20030;-83
2022/08/31 11:27:10;;;;;;;5.88;3.90;;;;;;;;;;5016647;28;20037;-83
2022/08/31 11:29:59;;;;;;;8.80;3.65;;;;;;;;;;5013764;28;20173;-83
2022/08/31 11:32:44;;;;;;;5.93;3.40;;;;;;;;;;5026350;28;20049;-84
2022/08/31 11:35:10;;;;;;;6.97;3.50;;;;;;;;;;5000868;28;20037;-83
2022/08/31 11:37:49;;;;;;;6.85;3.97;;;;;;;;;;4981698;28;20057;-83
2022/08/31 11:40:40;;;;;;;6.88;4.28;;;;;;;;;;5046119;28;20046;-83
2022/08/31 11:43:29;;;;;;;6.03;4.30;;;;;;;;;;5016037;28;20045;-83
2022/08/31 11:46:00;;;;;;;7.13;4.60;;;;;;;;;;5031672;28;20124;-83
2022/08/31 11:48:52;;;;;;;7.22;4.03;;;;;;;;;;5000459;28;20037;-83
2022/08/31 11:51:31;;;;;;;7.13;4.68;;;;;;;;;;5015197;28;20512;-84
2022/08/31 11:53:57;;;;;;;8.90;4.00;;;;;;;;;;5049051;28;20048;-83
2022/08/31 11:56:43;;;;;;;8.63;3.65;;;;;;;;;;4984116;28;20034;-83
2022/08/31 11:59:28;;;;;;;4.72;3.50;;;;;;;;;;4999799;28;20041;-85
2022/08/31 12:01:57;;;;;;;9.48;3.95;;;;;;;;;;5032694;28;20060;-84
2022/08/31 12:04:40;;;;;;;8.90;3.88;;;;;;;;;;5000156;28;20033;-83
2022/08/31 12:07:07;;;;;;;12.85;4.22;;;;;;;;;;5032799;28;20045;-85
2022/08/31 12:09:44;;;;;;;8.23;3.80;;;;;;;;;;4983849;28;20025;-84
2022/08/31 12:12:35;;;;;;;7.68;3.30;;;;;;;;;;5032504;28;20042;-86
2022/08/31 12:15:19;;;;;;;7.40;3.60;;;;;;;;;;5016177;28;20496;-85
2022/08/31 12:18:13;;;;;;;6.65;3.63;;;;;;;;;;5031901;28;20029;-84
2022/08/31 12:24:17;;;;;;;4.82;2.97;;;;;;;;;;5032402;28;20045;-85
2022/08/31 12:27:01;;;;;;;4.35;2.53;;;;;;;;;;5032852;28;20038;-86
2022/08/31 12:29:37;;;;;;;3.75;2.33;;;;;;;;;;5031978;28;20037;-85
2022/08/31 12:32:19;;;;;;;5.72;2.33;;;;;;;;;;4982597;28;20117;-85
2022/08/31 12:35:08;;;;;;;;;;;;;;;;;;4980540;28;20037;-86
2022/08/31 12:37:37;;;;;;;8.85;2.45;;;;;;;;;;5009410;28;19960;-86
2022/08/31 12:40:13;;;;;;;5.88;2.20;;;;;;;;;;4963489;28;20504;-85
2022/08/31 12:42:58;;;;;;;7.13;2.78;;;;;;;;;;4997668;28;20047;-83
2022/08/31 12:45:39;;;;;;;4.20;2.30;;;;;;;;;;5001412;28;20045;-84
2022/08/31 12:48:06;;;;;;;4.72;2.58;;;;;;;;;;4998799;28;20064;-84
2022/08/31 12:50:38;;;;;;;8.98;2.88;;;;;;;;;;5015130;28;20041;-83
2022/08/31 12:53:17;;;;;;;6.00;2.50;;;;;;;;;;4998075;28;20038;-84
2022/08/31 12:55:45;;;;;;;10.50;3.30;;;;;;;;;;4999260;28;20056;-82
2022/08/31 12:58:49;;;;;;;3.97;2.47;;;;;;;;;;5015276;28;20055;-83
2022/08/31 13:01:18;;;;;;;7.03;2.72;;;;;;;;;;4997921;28;20026;-82
2022/08/31 13:03:45;;;;;;;6.97;2.33;;;;;;;;;;4998730;28;20037;-82
2022/08/31 13:06:21;;;;;;;4.30;2.05;;;;;;;;;;4998968;28;20033;-81
2022/08/31 13:08:48;;;;;;;4.82;2.03;;;;;;;;;;4998900;28;20500;-84
2022/08/31 13:11:15;;;;;;;3.65;2.13;;;;;;;;;;4981615;28;20496;-80
2022/08/31 13:13:40;;;;;;;7.88;2.00;;;;;;;;;;5014718;28;20041;-79
2022/08/31 13:16:07;;;;;;;3.95;1.73;;;;;;;;;;4998127;28;20059;-80
2022/08/31 13:18:33;;;;;;;3.95;1.60;;;;;;;;;;4982179;28;20041;-81
2022/08/31 13:21:04;;;;;;;3.40;2.00;;;;;;;;;;4997437;28;20033;-81
2022/08/31 13:23:41;;;;;;;4.30;1.95;;;;;;;;;;4999404;28;20557;-81
2022/08/31 13:26:19;;;;;;;4.20;1.70;;;;;;;;;;5014613;28;20530;-82
2022/08/31 13:28:54;;;;;;;3.53;1.70;;;;;;;;;;5000118;28;20069;-81
2022/08/31 13:31:23;;;;;;;2.70;1.52;;;;;;;;;;5013110;28;20120;-81
2022/08/31 13:33:49;;;;;;;4.07;2.22;;;;;;;;;;5014575;28;20040;-81
2022/08/31 13:36:30;;;;;;;5.70;2.85;;;;;;;;;;4997844;28;20033;-80
2022/08/31 13:38:56;;;;;;;3.45;2.08;;;;;;;;;;5031253;28;20048;-80
2022/08/31 13:41:28;;;;;;;3.22;2.03;;;;;;;;;;4980549;28;20393;-80
2022/08/31 13:44:00;;;;;;;4.25;2.40;;;;;;;;;;4998077;28;20033;-80
2022/08/31 13:46:33;;;;;;;3.97;2.03;;;;;;;;;;4995535;28;20046;-81
2022/08/31 13:49:02;;;;;;;4.00;2.50;;;;;;;;;;5010831;28;20030;-81
2022/08/31 13:51:33;;;;;;;3.00;2.17;;;;;;;;;;5010802;28;20515;-81
2022/08/31 13:53:58;;;;;;;5.65;2.28;;;;;;;;;;5010345;28;20073;-81
2022/08/31 13:59:23;;;;;;;5.07;2.33;;;;;;;;;;5026429;28;20026;-81
2022/08/31 14:01:52;;;;;;;3.42;2.65;;;;;;;;;;5027086;28;20038;-81
2022/08/31 14:07:38;;;;;;;8.90;2.95;;;;;;;;;;5011897;28;20119;-80
2022/08/31 14:10:18;;;;;;;6.20;2.60;;;;;;;;;;5013115;28;20489;-80
2022/08/31 14:12:54;;;;;;;5.13;3.10;;;;;;;;;;5040872;28;20042;-81
2022/08/31 14:15:23;;;;;;;7.22;2.83;;;;;;;;;;5045232;28;20411;-82
2022/08/31 14:17:57;;;;;;;6.90;2.90;;;;;;;;;;5030381;28;20044;-82
2022/08/31 14:20:37;;;;;;;5.65;2.60;;;;;;;;;;4997971;28;20022;-83
2022/08/31 14:23:23;;;;;;;3.72;2.47;;;;;;;;;;5025930;28;20034;-83
2022/08/31 14:25:50;;;;;;;4.25;2.33;;;;;;;;;;5025960;28;20030;-82
2022/08/31 14:28:15;;;;;;;6.60;2.40;;;;;;;;;;4993315;28;20408;-82
2022/08/31 14:30:41;;;;;;;7.85;2.60;;;;;;;;;;5010079;28;20038;-85
2022/08/31 14:33:15;;;;;;;5.60;2.33;;;;;;;;;;5009965;28;20049;-84
2022/08/31 14:35:43;;;;;;;10.63;3.08;;;;;;;;;;5010415;28;20160;-84
2022/08/31 14:38:13;;;;;;;10.27;2.95;;;;;;;;;;4993767;28;20030;-84
2022/08/31 14:40:39;;;;;;;9.82;2.90;;;;;;;;;;5011265;28;20511;-84
2022/08/31 14:43:04;;;;;;;7.57;2.80;;;;;;;;;;4996279;28;20113;-84
2022/08/31 14:45:30;;;;;;;6.53;2.72;;;;;;;;;;4996203;28;20034;-84
2022/08/31 14:47:57;;;;;;;7.68;2.67;;;;;;;;;;4996532;28;20578;-83
2022/08/31 14:50:25;;;;;;;5.07;2.45;;;;;;;;;;5029501;28;20060;-84
2022/08/31 14:52:54;;;;;;;5.15;2.15;;;;;;;;;;5012781;28;20040;-84
2022/08/31 14:55:23;;;;;;;6.07;2.35;;;;;;;;;;5012871;28;20048;-86
2022/08/31 14:57:56;;;;;;;3.65;2.60;;;;;;;;;;5012894;28;20056;-83
2022/08/31 15:00:22;;;;;;;4.80;2.38;;;;;;;;;;5014319;28;20037;-84
2022/08/31 15:02:48;;;;;;;4.53;2.20;;;;;;;;;;5012926;28;20060;-84
2022/08/31 15:05:14;;;;;;;5.25;2.42;;;;;;;;;;5013610;28;20415;-84
2022/08/31 15:07:41;;;;;;;5.47;2.10;;;;;;;;;;4996864;28;20041;-84
2022/08/31 15:10:09;;;;;;;4.50;2.22;;;;;;;;;;5013202;28;20045;-86
2022/08/31 15:12:34;;;;;;;4.88;2.30;;;;;;;;;;5012833;28;20567;-84
2022/08/31 15:15:00;;;;;;;3.85;2.00;;;;;;;;;;4996993;28;20026;-84
2022/08/31 15:17:26;;;;;;;3.65;2.30;;;;;;;;;;5009735;28;20046;-85
2022/08/31 15:19:54;;;;;;;4.18;3.00;;;;;;;;;;4981031;28;20050;-84
2022/08/31 15:22:20;;;;;;;4.28;2.35;;;;;;;;;;4997229;28;20045;-84